createdAt,value
2023-04-05T00:01:37.591Z,101643.78
2023-04-05T00:04:05.153Z,101635.06
2023-04-05T00:06:32.108Z,101677.13
2023-04-05T00:09:03.901Z,101652.88
2023-04-05T00:11:32.701Z,101621.38
2023-04-05T00:14:00.179Z,101599.59
2023-04-05T00:16:27.822Z,101671.13
2023-04-05T00:18:55.777Z,101666.50
2023-04-05T00:21:23.645Z,101667.09
2023-04-05T00:23:51.638Z,101602.41
2023-04-05T00:26:19.140Z,101661.31
2023-04-05T00:28:46.757Z,101566.91
2023-04-05T00:31:13.662Z,101568.06
2023-04-05T00:33:40.867Z,101587.66
2023-04-05T00:36:18.708Z,101600.59
2023-04-05T00:38:46.743Z,101667.56
2023-04-05T00:41:14.363Z,101513.88
2023-04-05T00:43:41.444Z,101561.94
2023-04-05T00:46:08.754Z,101618.56
2023-04-05T00:48:35.898Z,101656.28
2023-04-05T00:51:02.812Z,101651.44
2023-04-05T00:53:29.482Z,101566.66
2023-04-05T00:55:56.306Z,101620.09
2023-04-05T00:58:23.851Z,101637.94
2023-04-05T01:01:13.749Z,101646.66
2023-04-05T01:03:45.106Z,101635.00
2023-04-05T01:06:17.954Z,101649.88
2023-04-05T01:08:52.472Z,101659.97
2023-04-05T01:11:19.250Z,101654.34
2023-04-05T01:13:46.826Z,101651.03
2023-04-05T01:16:15.606Z,101654.72
2023-04-05T01:18:46.570Z,101555.63
2023-04-05T01:21:46.084Z,101646.59
2023-04-05T01:24:46.851Z,101651.00
2023-04-05T01:27:32.039Z,101641.63
2023-04-05T01:30:07.889Z,101648.97
2023-04-05T01:32:52.782Z,101638.97
2023-04-05T01:35:38.702Z,101591.16
2023-04-05T01:38:07.825Z,101649.41
2023-04-05T01:40:36.826Z,101583.44
2023-04-05T01:43:03.691Z,101535.16
2023-04-05T01:45:31.346Z,101608.59
2023-04-05T01:47:58.096Z,101644.34
2023-04-05T01:50:24.620Z,101596.09
2023-04-05T01:52:51.166Z,101635.47
2023-04-05T01:55:17.845Z,101643.03
2023-04-05T01:57:44.333Z,101619.06
2023-04-05T02:00:12.148Z,101643.44
2023-04-05T02:02:38.792Z,101639.94
2023-04-05T02:05:05.720Z,101639.47
2023-04-05T02:07:32.233Z,101549.19
2023-04-05T02:09:58.737Z,101628.63
2023-04-05T02:12:25.596Z,101576.88
2023-04-05T02:14:52.655Z,101477.25
2023-04-05T02:17:19.214Z,101632.19
2023-04-05T02:19:46.911Z,101622.34
2023-04-05T02:22:13.951Z,101560.94
2023-04-05T02:24:41.312Z,101584.75
2023-04-05T02:27:08.009Z,101569.53
2023-04-05T02:29:34.855Z,101628.13
2023-04-05T02:32:01.830Z,101595.81
2023-04-05T02:34:28.508Z,101623.72
2023-04-05T02:36:55.367Z,101577.00
2023-04-05T02:39:21.913Z,101612.72
2023-04-05T02:41:48.578Z,101438.94
2023-04-05T02:44:15.123Z,101615.97
2023-04-05T02:46:41.975Z,101548.13
2023-04-05T02:49:08.437Z,101539.75
2023-04-05T02:51:35.253Z,101591.75
2023-04-05T02:54:03.139Z,101619.84
2023-04-05T02:56:30.163Z,101604.31
2023-04-05T02:58:56.669Z,101605.97
2023-04-05T03:01:23.888Z,101618.78
2023-04-05T03:03:50.965Z,101555.13
2023-04-05T03:06:18.184Z,101507.34
2023-04-05T03:08:46.111Z,101616.84
2023-04-05T03:11:12.948Z,101579.84
2023-04-05T03:13:39.437Z,101391.97
2023-04-05T03:16:06.314Z,101566.31
2023-04-05T03:18:32.871Z,101505.88
2023-04-05T03:20:59.427Z,101599.53
2023-04-05T03:23:28.613Z,101609.13
2023-04-05T03:26:01.398Z,101607.47
2023-04-05T03:28:28.402Z,101355.63
2023-04-05T03:30:55.197Z,101592.13
2023-04-05T03:33:22.206Z,101600.31
2023-04-05T03:35:48.816Z,101603.03
2023-04-05T03:38:16.312Z,101480.91
2023-04-05T03:40:44.595Z,101512.28
2023-04-05T03:43:11.426Z,101588.44
2023-04-05T03:45:38.175Z,101598.38
2023-04-05T03:48:05.830Z,101497.94
2023-04-05T03:50:32.403Z,101511.19
2023-04-05T03:52:59.267Z,101555.66
2023-04-05T03:55:26.804Z,101573.06
2023-04-05T03:57:54.074Z,101553.78
2023-04-05T04:00:20.832Z,101599.44
2023-04-05T04:02:48.498Z,101562.47
2023-04-05T04:05:16.544Z,101552.50
2023-04-05T04:07:44.297Z,101545.31
2023-04-05T04:10:12.613Z,101585.63
2023-04-05T04:12:39.447Z,101571.63
2023-04-05T04:15:06.615Z,101541.63
2023-04-05T04:17:35.112Z,101586.59
2023-04-05T04:20:01.949Z,101587.19
2023-04-05T04:22:33.149Z,101465.16
2023-04-05T04:25:02.676Z,101467.53
2023-04-05T04:27:30.442Z,101570.56
2023-04-05T04:30:01.947Z,101582.13
2023-04-05T04:32:47.727Z,101586.22
2023-04-05T04:35:18.451Z,101568.13
2023-04-05T04:37:53.141Z,101529.97
2023-04-05T04:40:19.587Z,101584.97
2023-04-05T04:42:48.905Z,101541.56
2023-04-05T04:45:17.296Z,101581.59
2023-04-05T04:47:48.866Z,101588.72
2023-04-05T04:50:16.579Z,101584.00
2023-04-05T04:52:43.108Z,101584.06
2023-04-05T04:55:10.255Z,101584.22
2023-04-05T04:57:36.794Z,101551.06
2023-04-05T05:00:12.114Z,101581.81
2023-04-05T05:02:39.263Z,101469.91
2023-04-05T05:05:07.544Z,101537.75
2023-04-05T05:07:34.721Z,101582.91
2023-04-05T05:10:01.795Z,101583.25
2023-04-05T05:12:29.892Z,101480.31
2023-04-05T05:14:56.691Z,101579.31
2023-04-05T05:17:23.963Z,101531.31
2023-04-05T05:19:51.407Z,101477.50
2023-04-05T05:22:18.598Z,101511.13
2023-04-05T05:24:45.636Z,101554.97
2023-04-05T05:27:12.360Z,101590.59
2023-04-05T05:29:38.849Z,101534.53
2023-04-05T05:32:05.328Z,101579.72
2023-04-05T05:34:32.759Z,101437.91
2023-04-05T05:36:59.320Z,101426.00
2023-04-05T05:39:25.872Z,101590.25
2023-04-05T05:41:52.856Z,101434.72
2023-04-05T05:44:19.379Z,101579.63
2023-04-05T05:46:46.034Z,101491.00
2023-04-05T05:49:12.926Z,101538.63
2023-04-05T05:51:41.590Z,101533.25
2023-04-05T05:54:08.202Z,101562.09
2023-04-05T05:56:34.876Z,101528.88
2023-04-05T05:59:01.909Z,101509.41
2023-04-05T06:01:28.578Z,101498.16
2023-04-05T06:03:55.868Z,101482.19
2023-04-05T06:06:23.038Z,101604.13
2023-04-05T06:08:49.601Z,101492.16
2023-04-05T06:11:20.114Z,101534.16
2023-04-05T06:13:47.734Z,101568.69
2023-04-05T06:16:14.454Z,101584.59
2023-04-05T06:18:41.818Z,101472.28
2023-04-05T06:21:08.405Z,101489.00
2023-04-05T06:23:35.009Z,101585.41
2023-04-05T06:26:01.705Z,101572.34
2023-04-05T06:28:29.195Z,101556.34
2023-04-05T06:30:57.959Z,101530.72
2023-04-05T06:33:24.981Z,101572.00
2023-04-05T06:35:51.681Z,101578.00
2023-04-05T06:38:18.786Z,101539.31
2023-04-05T06:40:45.305Z,101551.91
2023-04-05T06:43:12.828Z,101551.38
2023-04-05T06:45:39.373Z,101464.50
2023-04-05T06:48:06.627Z,101524.22
2023-04-05T06:50:33.287Z,101572.09
2023-04-05T06:53:00.076Z,101523.66
2023-04-05T06:55:26.790Z,101574.41
2023-04-05T06:57:53.269Z,101548.00
2023-04-05T07:00:20.820Z,101520.53
2023-04-05T07:02:47.430Z,101491.25
2023-04-05T07:05:14.209Z,101557.75
2023-04-05T07:07:44.332Z,101533.69
2023-04-05T07:10:11.460Z,101466.47
2023-04-05T07:12:38.928Z,101559.44
2023-04-05T07:15:06.330Z,101503.09
2023-04-05T07:17:32.863Z,101559.91
2023-04-05T07:19:59.445Z,101517.50
2023-04-05T07:22:25.939Z,101537.63
2023-04-05T07:24:53.395Z,101555.78
2023-04-05T07:27:20.124Z,101465.72
2023-04-05T07:29:48.364Z,101541.78
2023-04-05T07:32:15.050Z,101555.09
2023-04-05T07:34:42.151Z,101481.59
2023-04-05T07:37:08.770Z,101518.06
2023-04-05T07:39:35.763Z,101471.59
2023-04-05T07:42:02.534Z,101412.06
2023-04-05T07:44:29.149Z,101555.97
2023-04-05T07:46:55.780Z,101516.25
2023-04-05T07:49:27.224Z,101530.91
2023-04-05T07:51:55.712Z,101510.88
2023-04-05T07:54:22.236Z,101567.63
2023-04-05T07:56:52.421Z,101537.78
2023-04-05T07:59:19.014Z,101469.03
2023-04-05T08:01:45.742Z,101484.91
2023-04-05T08:04:12.560Z,101540.31
2023-04-05T08:06:39.309Z,101484.25
2023-04-05T08:09:06.367Z,101484.75
2023-04-05T08:11:33.338Z,101489.16
2023-04-05T08:14:00.284Z,101389.50
2023-04-05T08:16:27.878Z,101519.41
2023-04-05T08:18:54.446Z,101554.16
2023-04-05T08:21:23.172Z,101538.31
2023-04-05T08:23:50.411Z,101480.22
2023-04-05T08:26:17.295Z,101510.06
2023-04-05T08:28:43.824Z,101385.84
2023-04-05T08:31:13.418Z,101483.44
2023-04-05T08:33:40.393Z,101425.97
2023-04-05T08:36:08.201Z,101471.59
2023-04-05T08:38:34.974Z,101527.34
2023-04-05T08:41:18.642Z,101517.84
2023-04-05T08:43:46.253Z,101525.06
2023-04-05T08:46:16.832Z,101506.31
2023-04-05T08:48:43.739Z,101474.34
2023-04-05T08:51:10.473Z,101524.94
2023-04-05T08:53:37.124Z,101521.91
2023-04-05T08:56:04.338Z,101478.28
2023-04-05T08:58:31.854Z,101504.34
2023-04-05T09:00:59.112Z,101481.16
2023-04-05T09:03:28.614Z,101478.19
2023-04-05T09:05:58.911Z,101462.59
2023-04-05T09:08:25.536Z,101473.72
2023-04-05T09:10:52.526Z,101416.78
2023-04-05T09:13:19.515Z,101477.38
2023-04-05T09:15:46.780Z,101505.03
2023-04-05T09:18:25.490Z,101446.28
2023-04-05T09:21:06.361Z,101521.41
2023-04-05T09:23:39.972Z,101517.59
2023-04-05T09:26:22.880Z,101507.91
2023-04-05T09:28:49.670Z,101521.69
2023-04-05T09:31:48.822Z,101504.44
2023-04-05T09:34:21.935Z,101501.31
2023-04-05T09:36:48.569Z,101498.97
2023-04-05T09:39:20.544Z,101461.31
2023-04-05T09:42:04.995Z,101431.97
2023-04-05T09:44:52.775Z,101476.94
2023-04-05T09:47:20.779Z,101431.22
2023-04-05T09:49:47.494Z,101455.75
2023-04-05T09:52:23.187Z,101457.41
2023-04-05T09:54:52.238Z,101459.13
2023-04-05T09:57:19.064Z,101412.47
2023-04-05T09:59:47.198Z,101454.13
2023-04-05T10:02:13.875Z,101453.59
2023-04-05T10:04:41.958Z,101440.28
2023-04-05T10:07:13.871Z,101433.13
2023-04-05T10:09:42.004Z,101445.88
2023-04-05T10:12:09.946Z,101408.69
2023-04-05T10:14:37.389Z,101395.31
2023-04-05T10:17:10.496Z,101431.13
2023-04-05T10:19:40.222Z,101424.88
2023-04-05T10:22:13.968Z,101383.72
2023-04-05T10:24:46.572Z,101396.59
2023-04-05T10:27:30.447Z,101401.41
2023-04-05T10:30:04.737Z,101425.75
2023-04-05T10:33:03.108Z,101419.31
2023-04-05T10:36:08.434Z,101426.63
2023-04-05T10:38:46.017Z,101429.41
2023-04-05T10:41:16.774Z,101420.00
2023-04-05T10:43:44.219Z,101414.72
2023-04-05T10:46:11.841Z,101414.91
2023-04-05T10:48:49.911Z,101399.78
2023-04-05T10:51:16.844Z,101373.59
2023-04-05T10:53:43.996Z,101386.69
2023-04-05T10:56:11.586Z,101405.09
2023-04-05T10:58:39.731Z,101383.63
2023-04-05T11:01:07.851Z,101403.44
2023-04-05T11:03:51.629Z,101395.72
2023-04-05T11:06:19.891Z,101389.41
2023-04-05T11:08:48.726Z,101404.63
2023-04-05T11:11:17.656Z,101374.28
2023-04-05T11:13:56.980Z,101388.78
2023-04-05T11:16:25.074Z,101391.41
2023-04-05T11:18:52.807Z,101388.97
2023-04-05T11:21:26.291Z,101397.50
2023-04-05T11:24:00.054Z,101371.00
2023-04-05T11:26:48.412Z,101385.28
2023-04-05T11:29:15.748Z,101343.13
2023-04-05T11:32:01.683Z,101376.03
2023-04-05T11:34:28.250Z,101380.41
2023-04-05T11:36:54.883Z,101361.81
2023-04-05T11:39:21.614Z,101372.38
2023-04-05T11:41:48.094Z,101362.69
2023-04-05T11:44:16.257Z,101366.09
2023-04-05T11:46:43.444Z,101364.56
2023-04-05T11:49:10.129Z,101306.38
2023-04-05T11:51:36.848Z,101318.38
2023-04-05T11:54:03.550Z,101303.84
2023-04-05T11:56:30.104Z,101270.53
2023-04-05T11:59:00.238Z,101309.44
2023-04-05T12:01:27.282Z,101301.78
2023-04-05T12:03:57.864Z,101338.19
2023-04-05T12:06:26.174Z,101341.72
2023-04-05T12:08:56.181Z,101333.25
2023-04-05T12:11:27.926Z,101324.59
2023-04-05T12:13:56.648Z,101330.28
2023-04-05T12:16:23.221Z,101286.34
2023-04-05T12:18:58.632Z,101308.09
2023-04-05T12:21:26.388Z,101311.34
2023-04-05T12:23:53.526Z,101289.88
2023-04-05T12:26:21.243Z,101290.53
2023-04-05T12:28:58.533Z,101351.25
2023-04-05T12:31:44.776Z,101352.25
2023-04-05T12:34:12.593Z,101368.09
2023-04-05T12:36:39.714Z,101357.78
2023-04-05T12:39:09.079Z,101306.22
2023-04-05T12:41:37.442Z,101323.53
2023-04-05T12:44:17.329Z,101341.34
2023-04-05T12:46:45.340Z,101302.00
2023-04-05T12:49:12.767Z,101310.22
2023-04-05T12:51:46.983Z,101326.13
2023-04-05T12:54:21.533Z,101336.56
2023-04-05T12:56:53.085Z,101282.22
2023-04-05T12:59:20.370Z,101331.72
2023-04-05T13:01:47.160Z,101296.94
2023-04-05T13:04:16.715Z,101263.91
2023-04-05T13:06:46.600Z,101239.09
2023-04-05T13:09:13.233Z,101249.16
2023-04-05T13:11:39.927Z,101306.56
2023-04-05T13:14:06.531Z,101324.84
2023-04-05T13:16:33.036Z,101249.66
2023-04-05T13:18:59.633Z,101295.88
2023-04-05T13:21:26.174Z,101167.13
2023-04-05T13:23:52.703Z,101292.44
2023-04-05T13:26:19.245Z,101293.41
2023-04-05T13:28:46.103Z,101276.31
2023-04-05T13:31:14.449Z,101304.09
2023-04-05T13:33:42.414Z,101299.84
2023-04-05T13:36:10.884Z,101254.88
2023-04-05T13:38:37.884Z,101285.56
2023-04-05T13:41:04.596Z,101117.63
2023-04-05T13:43:31.491Z,101239.03
2023-04-05T13:45:58.363Z,101232.94
2023-04-05T13:48:25.080Z,101294.47
2023-04-05T13:50:51.946Z,101241.53
2023-04-05T13:53:18.416Z,101238.81
2023-04-05T13:55:45.124Z,101197.47
2023-04-05T13:58:14.398Z,101275.44
2023-04-05T14:00:44.032Z,101237.28
2023-04-05T14:03:11.159Z,101260.78
2023-04-05T14:05:37.839Z,101200.94
2023-04-05T14:08:11.554Z,101241.25
2023-04-05T14:10:38.111Z,101229.34
2023-04-05T14:13:04.592Z,101256.72
2023-04-05T14:15:31.785Z,101094.94
2023-04-05T14:17:58.420Z,101253.59
2023-04-05T14:20:25.088Z,101069.34
2023-04-05T14:22:51.763Z,101221.09
2023-04-05T14:25:18.629Z,101193.22
2023-04-05T14:27:48.093Z,101195.53
2023-04-05T14:30:14.973Z,101232.69
2023-04-05T14:32:42.038Z,101243.25
2023-04-05T14:35:09.211Z,101207.22
2023-04-05T14:37:36.033Z,101175.72
2023-04-05T14:40:02.859Z,101231.44
2023-04-05T14:42:45.163Z,101218.66
2023-04-05T14:45:15.487Z,101230.66
2023-04-05T14:47:44.243Z,101099.09
2023-04-05T14:50:11.269Z,101176.19
2023-04-05T14:52:39.877Z,101153.34
2023-04-05T14:55:06.714Z,101218.88
2023-04-05T14:57:33.339Z,100954.63
2023-04-05T14:59:59.857Z,101118.16
2023-04-05T15:02:28.054Z,101161.63
2023-04-05T15:04:54.736Z,101203.53
2023-04-05T15:07:21.800Z,101191.44
2023-04-05T15:09:48.920Z,101174.03
2023-04-05T15:12:15.665Z,101111.81
2023-04-05T15:14:42.303Z,101160.50
2023-04-05T15:17:09.127Z,101193.94
2023-04-05T15:19:36.103Z,101134.00
2023-04-05T15:22:02.954Z,101132.69
2023-04-05T15:24:29.839Z,101187.81
2023-04-05T15:27:02.443Z,101133.34
2023-04-05T15:29:29.898Z,101150.63
2023-04-05T15:31:57.928Z,101179.75
2023-04-05T15:34:25.306Z,101115.16
2023-04-05T15:36:52.874Z,101152.97
2023-04-05T15:39:19.507Z,100947.00
2023-04-05T15:41:47.154Z,101155.88
2023-04-05T15:44:14.377Z,101013.91
2023-04-05T15:46:41.285Z,101125.56
2023-04-05T15:49:10.239Z,101169.16
2023-04-05T15:51:39.298Z,101166.50
2023-04-05T15:54:06.106Z,101039.72
2023-04-05T15:56:32.709Z,101169.19
2023-04-05T15:58:59.923Z,101105.41
2023-04-05T16:01:26.820Z,101073.28
2023-04-05T16:03:53.870Z,101096.41
2023-04-05T16:06:22.101Z,101051.41
2023-04-05T16:08:48.970Z,101114.22
2023-04-05T16:11:15.678Z,101129.56
2023-04-05T16:13:44.865Z,101115.69
2023-04-05T16:16:13.794Z,101110.28
2023-04-05T16:18:42.608Z,101173.88
2023-04-05T16:21:09.527Z,101105.03
2023-04-05T16:23:39.851Z,101179.47
2023-04-05T16:26:06.562Z,100992.88
2023-04-05T16:28:33.363Z,101152.47
2023-04-05T16:31:00.216Z,101048.34
2023-04-05T16:33:27.146Z,101157.47
2023-04-05T16:35:53.969Z,101135.31
2023-04-05T16:38:21.313Z,101179.47
2023-04-05T16:40:47.953Z,101007.91
2023-04-05T16:43:16.223Z,101167.50
2023-04-05T16:45:44.213Z,101115.91
2023-04-05T16:48:11.126Z,101145.22
2023-04-05T16:50:38.599Z,101164.63
2023-04-05T16:53:05.178Z,101078.63
2023-04-05T16:55:31.774Z,101111.16
2023-04-05T16:57:58.544Z,101076.44
2023-04-05T17:00:27.357Z,101173.41
2023-04-05T17:02:53.950Z,101118.06
2023-04-05T17:05:20.944Z,101105.69
2023-04-05T17:07:47.807Z,101123.69
2023-04-05T17:10:14.346Z,101135.88
2023-04-05T17:12:42.327Z,101129.56
2023-04-05T17:15:10.536Z,101160.28
2023-04-05T17:17:37.383Z,101086.81
2023-04-05T17:20:04.490Z,101143.72
2023-04-05T17:22:33.924Z,101159.13
2023-04-05T17:25:02.620Z,101161.97
2023-04-05T17:27:29.191Z,101100.19
2023-04-05T17:29:55.938Z,101148.31
2023-04-05T17:32:22.510Z,101107.47
2023-04-05T17:34:49.181Z,101120.16
2023-04-05T17:37:15.818Z,101163.13
2023-04-05T17:39:42.385Z,101142.75
2023-04-05T17:42:09.323Z,101115.25
2023-04-05T17:44:36.260Z,101134.09
2023-04-05T17:47:09.135Z,101071.25
2023-04-05T17:49:38.457Z,101154.38
2023-04-05T17:52:05.880Z,101099.28
2023-04-05T17:54:37.028Z,101110.03
2023-04-05T17:57:07.134Z,101159.03
2023-04-05T17:59:35.180Z,101150.94
2023-04-05T18:02:01.841Z,101167.06
2023-04-05T18:04:28.790Z,101085.75
2023-04-05T18:06:55.468Z,101047.50
2023-04-05T18:09:22.023Z,101118.69
2023-04-05T18:11:50.114Z,101073.22
2023-04-05T18:14:16.659Z,100943.88
2023-04-05T18:16:43.195Z,101124.06
2023-04-05T18:19:09.730Z,101095.50
2023-04-05T18:21:36.454Z,101127.41
2023-04-05T18:24:03.199Z,101102.59
2023-04-05T18:26:30.298Z,101184.81
2023-04-05T18:29:00.437Z,101124.34
2023-04-05T18:31:28.259Z,101136.38
2023-04-05T18:33:55.010Z,101183.00
2023-04-05T18:36:25.477Z,101181.63
2023-04-05T18:38:57.599Z,101129.81
2023-04-05T18:41:24.393Z,101104.84
2023-04-05T18:43:54.635Z,101185.41
2023-04-05T18:46:22.487Z,101163.63
2023-04-05T18:48:57.680Z,101164.59
2023-04-05T18:51:24.735Z,101197.22
2023-04-05T18:53:51.435Z,101155.13
2023-04-05T18:56:18.135Z,101198.03
2023-04-05T18:58:48.248Z,101140.41
2023-04-05T19:01:16.094Z,101178.41
2023-04-05T19:03:44.044Z,101204.44
2023-04-05T19:06:12.203Z,101129.34
2023-04-05T19:08:39.512Z,101203.59
2023-04-05T19:11:06.902Z,101162.16
2023-04-05T19:13:34.067Z,101185.13
2023-04-05T19:16:00.906Z,101166.06
2023-04-05T19:18:29.865Z,101185.81
2023-04-05T19:20:58.904Z,101213.91
2023-04-05T19:23:26.767Z,101200.50
2023-04-05T19:25:57.819Z,101136.88
2023-04-05T19:28:25.958Z,101140.75
2023-04-05T19:30:55.130Z,101217.97
2023-04-05T19:33:22.065Z,101236.06
2023-04-05T19:35:49.166Z,101190.13
2023-04-05T19:38:16.181Z,101220.59
2023-04-05T19:40:42.931Z,101141.34
2023-04-05T19:43:10.343Z,101205.81
2023-04-05T19:45:37.173Z,101062.03
2023-04-05T19:48:27.731Z,101107.41
2023-04-05T19:50:57.592Z,101180.75
2023-04-05T19:53:38.975Z,101149.41
2023-04-05T19:56:12.674Z,101186.53
2023-04-05T19:58:40.463Z,101219.03
2023-04-05T20:01:08.175Z,101219.13
2023-04-05T20:03:38.611Z,101219.44
2023-04-05T20:06:07.280Z,101162.88
2023-04-05T20:08:45.806Z,101192.69
2023-04-05T20:11:14.514Z,101209.47
2023-04-05T20:13:43.766Z,101187.28
2023-04-05T20:16:12.196Z,101217.63
2023-04-05T20:18:39.855Z,101207.22
2023-04-05T20:21:06.993Z,101202.00
2023-04-05T20:23:36.133Z,101164.38
2023-04-05T20:26:06.332Z,101202.66
2023-04-05T20:28:55.272Z,101205.31
2023-04-05T20:31:23.252Z,101197.28
2023-04-05T20:33:53.156Z,101170.63
2023-04-05T20:36:37.288Z,101194.81
2023-04-05T20:39:06.315Z,101158.00
2023-04-05T20:41:33.118Z,101205.44
2023-04-05T20:44:00.378Z,101190.91
2023-04-05T20:46:28.346Z,101065.56
2023-04-05T20:48:57.273Z,101175.94
2023-04-05T20:51:24.038Z,101186.56
2023-04-05T20:53:51.688Z,101150.56
2023-04-05T20:56:18.490Z,101184.53
2023-04-05T20:58:45.088Z,101131.66
2023-04-05T21:01:12.077Z,101060.56
2023-04-05T21:03:40.748Z,101183.16
2023-04-05T21:06:08.681Z,101128.81
2023-04-05T21:08:36.611Z,101195.22
2023-04-05T21:11:03.325Z,101139.22
2023-04-05T21:13:31.955Z,101102.16
2023-04-05T21:15:58.917Z,101174.63
2023-04-05T21:18:26.120Z,101133.88
2023-04-05T21:20:53.858Z,101154.28
2023-04-05T21:23:22.730Z,101175.00
2023-04-05T21:25:50.341Z,101174.78
2023-04-05T21:28:17.062Z,101057.56
2023-04-05T21:30:44.261Z,101173.44
2023-04-05T21:33:11.851Z,101143.09
2023-04-05T21:35:38.782Z,101172.88
2023-04-05T21:38:05.757Z,101154.13
2023-04-05T21:40:32.967Z,101070.53
2023-04-05T21:43:00.007Z,101161.44
2023-04-05T21:45:26.970Z,101171.78
2023-04-05T21:47:54.309Z,101155.78
2023-04-05T21:50:21.193Z,101173.38
2023-04-05T21:52:49.721Z,101135.22
2023-04-05T21:55:16.301Z,101131.16
2023-04-05T21:57:43.265Z,101110.34
2023-04-05T22:00:13.178Z,101112.66
2023-04-05T22:02:39.921Z,101139.09
2023-04-05T22:05:08.157Z,101117.44
2023-04-05T22:07:35.569Z,101167.91
2023-04-05T22:10:02.950Z,101173.38
2023-04-05T22:12:29.902Z,101169.13
2023-04-05T22:14:56.725Z,101061.16
2023-04-05T22:17:23.357Z,101106.13
2023-04-05T22:19:52.384Z,101147.78
2023-04-05T22:22:19.165Z,101089.13
2023-04-05T22:24:45.771Z,101118.69
2023-04-05T22:27:12.396Z,101124.00
2023-04-05T22:29:39.331Z,101162.06
2023-04-05T22:32:06.468Z,101090.75
2023-04-05T22:34:33.197Z,101099.22
2023-04-05T22:37:00.536Z,101114.63
2023-04-05T22:39:27.877Z,101123.88
2023-04-05T22:41:54.996Z,101126.13
2023-04-05T22:44:22.050Z,101051.59
2023-04-05T22:46:48.712Z,101154.47
2023-04-05T22:49:16.403Z,101147.44
2023-04-05T22:51:42.908Z,101147.78
2023-04-05T22:54:09.486Z,101079.94
2023-04-05T22:56:36.416Z,100976.53
2023-04-05T22:59:03.077Z,101036.72
2023-04-05T23:01:29.672Z,101138.34
2023-04-05T23:03:56.485Z,101068.94
2023-04-05T23:06:23.047Z,101097.00
2023-04-05T23:08:49.557Z,101122.88
2023-04-05T23:11:16.489Z,101080.41
2023-04-05T23:13:43.001Z,101076.78
2023-04-05T23:16:10.117Z,101098.06
2023-04-05T23:18:36.694Z,101077.47
2023-04-05T23:21:03.381Z,101122.19
2023-04-05T23:23:29.928Z,101079.38
2023-04-05T23:25:56.770Z,101028.75
2023-04-05T23:28:23.293Z,100990.91
2023-04-05T23:30:49.898Z,101124.47
2023-04-05T23:33:16.495Z,101056.22
2023-04-05T23:35:43.175Z,101002.81
2023-04-05T23:38:09.769Z,101115.03
2023-04-05T23:40:36.373Z,101109.97
2023-04-05T23:43:02.943Z,101109.56
2023-04-05T23:45:29.544Z,101026.25
2023-04-05T23:47:56.202Z,101035.19
2023-04-05T23:50:22.766Z,101027.25
2023-04-05T23:52:49.739Z,101100.41
2023-04-05T23:55:16.843Z,101101.34
2023-04-05T23:57:43.444Z,101057.16
